Time;durP1;ratioP1;P1;durP2;ratioP2;P2;SDS_P1;SDS_P2;PMS_P1;PMS_P2;Temp;Humidity;BMP_temperature;BMP_pressure;BME280_temperature;BME280_humidity;BME280_pressure;Samples;Min_cycle;Max_cycle;Signal;HPM_P1;HPM_P2
2024/01/02 00:02:17;;;;;;;6.72;2.25;;;;;;;-142.43;100.00;63430.59;4978848;28;20506;-80
2024/01/02 00:04:44;;;;;;;8.95;2.75;;;;;;;-142.43;100.00;63430.59;4978105;28;20435;-80
2024/01/02 00:07:10;;;;;;;9.60;3.28;;;;;;;-142.43;100.00;63430.59;4978219;28;20046;-79
2024/01/02 00:09:38;;;;;;;9.93;3.25;;;;;;;-142.43;100.00;63430.59;4974603;28;20059;-79
2024/01/02 00:12:07;;;;;;;6.95;2.88;;;;;;;-142.43;100.00;63430.59;4975378;28;20078;-79
2024/01/02 00:14:34;;;;;;;7.03;2.38;;;;;;;-142.43;100.00;63430.59;4974759;28;20153;-79
2024/01/02 00:17:01;;;;;;;7.80;2.70;;;;;;;-142.43;100.00;63430.59;4977961;28;20137;-79
2024/01/02 00:19:27;;;;;;;6.10;2.63;;;;;;;-142.43;100.00;63430.59;4974207;28;20077;-79
2024/01/02 00:21:54;;;;;;;7.18;2.30;;;;;;;-142.43;100.00;63430.59;4973146;28;20068;-79
2024/01/02 00:24:20;;;;;;;9.15;3.70;;;;;;;-142.43;100.00;63430.59;4976517;28;20133;-80
2024/01/02 00:26:48;;;;;;;10.88;2.90;;;;;;;-142.43;100.00;63430.59;4977536;28;20042;-80
2024/01/02 00:29:15;;;;;;;10.65;2.72;;;;;;;-142.43;100.00;63430.59;4977765;28;20142;-80
2024/01/02 00:31:44;;;;;;;9.13;3.03;;;;;;;-142.43;100.00;63430.59;4978065;28;20051;-79
2024/01/02 00:34:11;;;;;;;6.55;2.58;;;;;;;-142.43;100.00;63430.59;4977291;28;20051;-80
2024/01/02 00:36:38;;;;;;;4.40;2.28;;;;;;;-142.43;100.00;63430.59;4976843;28;20462;-79
2024/01/02 00:39:05;;;;;;;6.53;2.17;;;;;;;-142.43;100.00;63430.59;4976532;28;20122;-80
2024/01/02 00:41:32;;;;;;;3.47;1.83;;;;;;;-142.43;100.00;63430.59;4977466;28;20058;-80
2024/01/02 00:44:00;;;;;;;7.70;2.72;;;;;;;-142.43;100.00;63430.59;4980227;28;20573;-80
2024/01/02 00:46:26;;;;;;;9.93;2.70;;;;;;;-142.43;100.00;63430.59;4980800;28;20070;-80
2024/01/02 00:48:53;;;;;;;5.80;2.63;;;;;;;-142.43;100.00;63430.59;4980388;28;20133;-80
2024/01/02 00:51:19;;;;;;;3.85;2.10;;;;;;;-142.43;100.00;63430.59;4980971;28;20133;-80
2024/01/02 00:53:46;;;;;;;5.95;2.28;;;;;;;-142.43;100.00;63430.59;4981280;28;20105;-80
2024/01/02 00:56:13;;;;;;;6.47;2.42;;;;;;;-142.43;100.00;63430.59;4983948;28;20142;-79
2024/01/02 00:58:39;;;;;;;5.78;2.30;;;;;;;-142.43;100.00;63430.59;4982595;28;20133;-80
2024/01/02 01:01:07;;;;;;;1.65;1.42;;;;;;;-142.43;100.00;63430.59;4981540;28;20130;-80
2024/01/02 01:03:34;;;;;;;6.50;2.22;;;;;;;-142.43;100.00;63430.59;4981039;28;20142;-80
2024/01/02 01:06:00;;;;;;;5.50;2.22;;;;;;;-142.43;100.00;63430.59;4980846;28;20050;-79
2024/01/02 01:08:27;;;;;;;7.68;2.80;;;;;;;-142.43;100.00;63430.59;4979470;28;20110;-79
2024/01/02 01:10:53;;;;;;;5.93;2.53;;;;;;;-142.43;100.00;63430.59;4979782;28;20538;-79
2024/01/02 01:13:20;;;;;;;3.33;1.83;;;;;;;-142.43;100.00;63430.59;4979273;28;20049;-79
2024/01/02 01:15:47;;;;;;;6.10;2.17;;;;;;;-142.43;100.00;63430.59;4979427;28;20131;-79
2024/01/02 01:18:15;;;;;;;5.15;2.28;;;;;;;-142.43;100.00;63430.59;4978761;28;20118;-78
2024/01/02 01:20:41;;;;;;;5.03;1.92;;;;;;;-142.43;100.00;63430.59;4979163;28;20075;-79
2024/01/02 01:23:08;;;;;;;5.30;2.22;;;;;;;-142.43;100.00;63430.59;4979258;28;20050;-78
2024/01/02 01:25:34;;;;;;;6.35;2.33;;;;;;;-142.43;100.00;63430.59;4978949;28;20134;-79
2024/01/02 01:28:03;;;;;;;6.28;2.00;;;;;;;-142.43;100.00;63430.59;4978576;28;20233;-79
2024/01/02 01:30:30;;;;;;;6.45;2.30;;;;;;;-142.43;100.00;63430.59;4979275;28;20051;-78
2024/01/02 01:32:56;;;;;;;4.20;2.17;;;;;;;-142.43;100.00;63430.59;4978679;28;20129;-79
2024/01/02 01:35:24;;;;;;;4.68;2.13;;;;;;;-142.43;100.00;63430.59;4977831;28;20150;-79
2024/01/02 01:37:51;;;;;;;7.28;1.55;;;;;;;-142.43;100.00;63430.59;4976980;28;20057;-79
2024/01/02 01:40:17;;;;;;;7.00;2.40;;;;;;;-142.43;100.00;63430.59;4978040;28;20070;-79
2024/01/02 01:42:44;;;;;;;4.97;2.10;;;;;;;-142.43;100.00;63430.59;4978774;28;20137;-79
2024/01/02 01:45:11;;;;;;;5.38;2.10;;;;;;;-142.43;100.00;63430.59;4978699;28;20137;-79
2024/01/02 01:47:38;;;;;;;4.88;2.22;;;;;;;-142.43;100.00;63430.59;4978351;28;20090;-80
2024/01/02 01:50:05;;;;;;;3.30;1.88;;;;;;;-142.43;100.00;63430.59;4978111;28;20102;-80
2024/01/02 01:52:34;;;;;;;2.83;1.52;;;;;;;-142.43;100.00;63430.59;4980293;28;20167;-80
2024/01/02 01:55:02;;;;;;;3.30;1.50;;;;;;;-142.43;100.00;63430.59;4978434;28;20054;-80
2024/01/02 01:57:29;;;;;;;6.07;2.00;;;;;;;-142.43;100.00;63430.59;4979487;28;20054;-80
2024/01/02 01:59:56;;;;;;;4.78;1.25;;;;;;;-142.43;100.00;63430.59;4979324;28;20130;-81
2024/01/02 02:02:23;;;;;;;3.67;1.30;;;;;;;-142.43;100.00;63430.59;4978805;28;20082;-80
2024/01/02 02:04:50;;;;;;;3.60;1.33;;;;;;;-142.43;100.00;63430.59;4979616;28;20057;-80
2024/01/02 02:07:17;;;;;;;2.47;1.45;;;;;;;-142.43;100.00;63430.59;4979415;28;20131;-79
2024/01/02 02:09:45;;;;;;;4.70;1.83;;;;;;;-142.43;100.00;63430.59;4979329;28;20054;-80
2024/01/02 02:12:12;;;;;;;2.55;1.17;;;;;;;-142.43;100.00;63430.59;4981057;28;20441;-80
2024/01/02 02:14:38;;;;;;;2.22;1.35;;;;;;;-142.43;100.00;63430.59;4980365;28;20078;-80
2024/01/02 02:17:05;;;;;;;2.95;1.40;;;;;;;-142.43;100.00;63430.59;4980218;28;20105;-80
2024/01/02 02:19:32;;;;;;;3.00;1.40;;;;;;;-142.43;100.00;63430.59;4979438;28;20082;-79
2024/01/02 02:22:00;;;;;;;3.15;1.02;;;;;;;-142.43;100.00;63430.59;4980129;28;20093;-81
2024/01/02 02:24:29;;;;;;;3.55;1.33;;;;;;;-142.43;100.00;63430.59;4979900;28;20474;-81
2024/01/02 02:26:57;;;;;;;2.38;1.48;;;;;;;-142.43;100.00;63430.59;4980179;28;20138;-81
2024/01/02 02:29:24;;;;;;;1.52;0.90;;;;;;;-142.43;100.00;63430.59;4979361;28;20086;-81
2024/01/02 02:31:50;;;;;;;4.18;1.00;;;;;;;-142.43;100.00;63430.59;4982385;28;20135;-81
2024/01/02 02:34:17;;;;;;;1.73;1.02;;;;;;;-142.43;100.00;63430.59;4984577;28;20106;-82
2024/01/02 02:36:43;;;;;;;2.90;1.60;;;;;;;-142.43;100.00;63430.59;4972885;28;20141;-81
2024/01/02 02:39:10;;;;;;;1.38;0.95;;;;;;;-142.43;100.00;63430.59;4978700;28;20176;-80
2024/01/02 02:41:38;;;;;;;1.08;0.65;;;;;;;-142.43;100.00;63430.59;4979389;28;20078;-81
2024/01/02 02:44:05;;;;;;;1.33;0.70;;;;;;;-142.43;100.00;63430.59;4979173;28;20057;-80
2024/01/02 02:46:31;;;;;;;2.15;0.82;;;;;;;-142.43;100.00;63430.59;4979466;28;20086;-81
2024/01/02 02:48:58;;;;;;;2.88;0.90;;;;;;;-142.43;100.00;63430.59;4978613;28;20093;-80
2024/01/02 02:51:25;;;;;;;0.73;0.73;;;;;;;-142.43;100.00;63430.59;4978853;28;20054;-81
2024/01/02 02:53:51;;;;;;;2.72;0.88;;;;;;;-142.43;100.00;63430.59;4978829;28;20133;-81
2024/01/02 02:56:18;;;;;;;2.08;0.88;;;;;;;-142.43;100.00;63430.59;4978467;28;20054;-80
2024/01/02 02:58:46;;;;;;;1.25;0.80;;;;;;;-142.43;100.00;63430.59;4978367;28;20058;-80
2024/01/02 03:01:21;;;;;;;1.75;0.75;;;;;;;-142.43;100.00;63430.59;4978879;28;20077;-81
2024/01/02 03:03:48;;;;;;;2.20;0.60;;;;;;;-142.43;100.00;63430.59;4979023;28;20413;-80
2024/01/02 03:06:15;;;;;;;0.70;0.65;;;;;;;-142.43;100.00;63430.59;4978323;28;20054;-80
2024/01/02 03:08:41;;;;;;;0.98;0.68;;;;;;;-142.43;100.00;63430.59;4977598;28;20074;-80
2024/01/02 03:11:08;;;;;;;0.73;0.40;;;;;;;-142.43;100.00;63430.59;4977827;28;20168;-80
2024/01/02 03:13:34;;;;;;;1.75;0.77;;;;;;;-142.43;100.00;63430.59;4978845;28;20134;-81
2024/01/02 03:16:03;;;;;;;1.95;0.82;;;;;;;-142.43;100.00;63430.59;4978825;28;20130;-81
2024/01/02 03:18:29;;;;;;;1.75;1.00;;;;;;;-142.43;100.00;63430.59;4978767;28;20103;-80
2024/01/02 03:20:56;;;;;;;1.88;0.90;;;;;;;-142.43;100.00;63430.59;4982275;28;20046;-81
2024/01/02 03:23:23;;;;;;;0.50;0.47;;;;;;;-142.43;100.00;63430.59;4989594;28;20123;-80
2024/01/02 03:25:49;;;;;;;0.70;0.50;;;;;;;-142.43;100.00;63430.59;4981510;28;20082;-78
2024/01/02 03:28:16;;;;;;;5.63;1.00;;;;;;;-142.43;100.00;63430.59;4979533;28;20525;-79
2024/01/02 03:30:42;;;;;;;0.90;0.63;;;;;;;-142.43;100.00;63430.59;4980754;28;20133;-80
2024/01/02 03:33:10;;;;;;;3.08;0.90;;;;;;;-142.43;100.00;63430.59;4977555;28;20125;-79
2024/01/02 03:35:37;;;;;;;1.02;0.40;;;;;;;-142.43;100.00;63430.59;4977534;28;20105;-79
2024/01/02 03:38:04;;;;;;;0.35;0.32;;;;;;;-142.43;100.00;63430.59;4972590;28;20526;-79
2024/01/02 03:40:31;;;;;;;1.50;0.70;;;;;;;-142.43;100.00;63430.59;4978124;28;20050;-80
2024/01/02 03:42:57;;;;;;;1.27;0.90;;;;;;;-142.43;100.00;63430.59;4978057;28;20105;-80
2024/01/02 03:45:24;;;;;;;2.95;0.85;;;;;;;-142.43;100.00;63430.59;4979482;28;20081;-80
2024/01/02 03:47:51;;;;;;;0.82;0.70;;;;;;;-142.43;100.00;63430.59;4983065;28;20058;-80
2024/01/02 03:50:19;;;;;;;1.05;0.47;;;;;;;-142.43;100.00;63430.59;4985385;28;20073;-80
2024/01/02 03:52:46;;;;;;;2.30;1.05;;;;;;;-142.43;100.00;63430.59;4981858;28;20051;-79
2024/01/02 03:55:12;;;;;;;1.40;0.60;;;;;;;-142.43;100.00;63430.59;4979464;28;20129;-79
2024/01/02 03:57:39;;;;;;;2.03;0.38;;;;;;;-142.43;100.00;63430.59;4976948;28;20082;-79
2024/01/02 04:00:07;;;;;;;0.80;0.40;;;;;;;-142.43;100.00;63430.59;4977363;28;20390;-79
2024/01/02 04:02:34;;;;;;;1.30;0.95;;;;;;;-142.43;100.00;63430.59;4977342;28;20576;-80
2024/01/02 04:05:01;;;;;;;0.93;0.82;;;;;;;-142.43;100.00;63430.59;4977410;28;20106;-80
2024/01/02 04:07:29;;;;;;;1.65;0.77;;;;;;;-142.43;100.00;63430.59;4977340;28;20134;-80
2024/01/02 04:09:55;;;;;;;2.78;0.70;;;;;;;-142.43;100.00;63430.59;4978811;28;20046;-80
2024/01/02 04:12:23;;;;;;;2.60;1.10;;;;;;;-142.43;100.00;63430.59;4969309;28;20078;-80
2024/01/02 04:14:49;;;;;;;0.60;0.60;;;;;;;-142.43;100.00;63430.59;4977261;28;20529;-80
2024/01/02 04:17:16;;;;;;;2.05;0.75;;;;;;;-142.43;100.00;63430.59;4977140;28;20089;-80
2024/01/02 04:19:43;;;;;;;3.67;0.73;;;;;;;-142.43;100.00;63430.59;4977212;28;20566;-80
2024/01/02 04:22:09;;;;;;;3.88;0.73;;;;;;;-142.43;100.00;63430.59;4977378;28;20136;-79
2024/01/02 04:24:37;;;;;;;0.40;0.40;;;;;;;-142.43;100.00;63430.59;4977387;28;20050;-78
2024/01/02 04:27:04;;;;;;;0.60;0.45;;;;;;;-142.43;100.00;63430.59;4977435;28;20082;-80
2024/01/02 04:29:31;;;;;;;0.68;0.47;;;;;;;-142.43;100.00;63430.59;4977501;28;20082;-80
2024/01/02 04:31:59;;;;;;;1.15;0.73;;;;;;;-142.43;100.00;63430.59;4978618;28;20536;-80
2024/01/02 04:34:25;;;;;;;2.47;0.80;;;;;;;-142.43;100.00;63430.59;4977862;28;20095;-80
2024/01/02 04:36:52;;;;;;;1.30;0.60;;;;;;;-142.43;100.00;63430.59;4978566;28;20494;-80
2024/01/02 04:39:19;;;;;;;1.00;0.60;;;;;;;-142.43;100.00;63430.59;4977898;28;20050;-80
2024/01/02 04:41:47;;;;;;;2.45;1.02;;;;;;;-142.43;100.00;63430.59;4978880;28;20422;-79
2024/01/02 04:44:14;;;;;;;0.70;0.63;;;;;;;-142.43;100.00;63430.59;4978374;28;20118;-79
2024/01/02 04:46:41;;;;;;;1.27;0.75;;;;;;;-142.43;100.00;63430.59;4978190;28;20081;-80
2024/01/02 04:49:08;;;;;;;2.22;0.68;;;;;;;-142.43;100.00;63430.59;4977550;28;20185;-80
2024/01/02 04:51:34;;;;;;;0.70;0.43;;;;;;;-142.43;100.00;63430.59;4981861;28;20074;-81
2024/01/02 04:54:01;;;;;;;0.70;0.50;;;;;;;-142.43;100.00;63430.59;4977630;28;20134;-80
2024/01/02 04:56:27;;;;;;;2.95;0.63;;;;;;;-142.43;100.00;63430.59;4977227;28;20522;-80
2024/01/02 04:58:55;;;;;;;0.60;0.57;;;;;;;-142.43;100.00;63430.59;4976346;28;20105;-80
2024/01/02 05:01:22;;;;;;;0.65;0.35;;;;;;;-142.43;100.00;63430.59;4977170;28;20053;-80
2024/01/02 05:03:49;;;;;;;1.02;0.95;;;;;;;-142.43;100.00;63430.59;4977062;28;20054;-80
2024/01/02 05:06:15;;;;;;;0.93;0.73;;;;;;;-142.43;100.00;63430.59;4977091;28;20074;-81
2024/01/02 05:08:42;;;;;;;0.75;0.60;;;;;;;-142.43;100.00;63430.59;4976698;28;20078;-80
2024/01/02 05:11:08;;;;;;;0.70;0.63;;;;;;;-142.43;100.00;63430.59;4977539;28;20493;-80
2024/01/02 05:13:35;;;;;;;2.65;1.02;;;;;;;-142.43;100.00;63430.59;4977582;28;20074;-80
2024/01/02 05:16:03;;;;;;;1.83;1.00;;;;;;;-142.43;100.00;63430.59;4977576;28;20134;-80
2024/01/02 05:18:30;;;;;;;3.03;0.90;;;;;;;-142.43;100.00;63430.59;4976231;28;20084;-80
2024/01/02 05:20:57;;;;;;;2.28;1.10;;;;;;;-142.43;100.00;63430.59;4972733;28;20077;-80
2024/01/02 05:23:23;;;;;;;1.02;0.70;;;;;;;-142.43;100.00;63430.59;4973686;28;20062;-80
2024/01/02 05:25:50;;;;;;;0.77;0.70;;;;;;;-142.43;100.00;63430.59;4977151;28;20129;-79
2024/01/02 05:28:16;;;;;;;3.03;1.65;;;;;;;-142.43;100.00;63430.59;4976102;28;20153;-79
2024/01/02 05:30:43;;;;;;;1.13;0.73;;;;;;;-142.43;100.00;63430.59;4980659;28;20465;-79
2024/01/02 05:33:11;;;;;;;2.60;0.70;;;;;;;-142.43;100.00;63430.59;4983149;28;20074;-79
2024/01/02 05:35:38;;;;;;;0.57;0.40;;;;;;;-142.43;100.00;63430.59;4987585;28;20089;-78
2024/01/02 05:38:04;;;;;;;0.55;0.20;;;;;;;-142.43;100.00;63430.59;4988089;28;20135;-79
2024/01/02 05:40:31;;;;;;;0.73;0.22;;;;;;;-142.43;100.00;63430.59;4987515;28;20110;-79
2024/01/02 05:42:58;;;;;;;0.30;0.30;;;;;;;-142.43;100.00;63430.59;4982908;28;20055;-79
2024/01/02 05:45:24;;;;;;;0.20;0.20;;;;;;;-142.43;100.00;63430.59;4981773;28;20055;-80
2024/01/02 05:47:51;;;;;;;0.52;0.30;;;;;;;-142.43;100.00;63430.59;4982078;28;20055;-80
2024/01/02 05:50:19;;;;;;;0.57;0.30;;;;;;;-142.43;100.00;63430.59;4982616;28;20186;-80
2024/01/02 05:52:46;;;;;;;0.10;0.10;;;;;;;-142.43;100.00;63430.59;4980021;28;20062;-79
2024/01/02 05:55:12;;;;;;;0.68;0.32;;;;;;;-142.43;100.00;63430.59;4980595;28;20058;-80
2024/01/02 05:57:39;;;;;;;1.10;0.20;;;;;;;-142.43;100.00;63430.59;4980440;28;20062;-78
2024/01/02 06:00:07;;;;;;;1.35;0.40;;;;;;;-142.43;100.00;63430.59;4979418;28;20130;-80
2024/01/02 06:02:34;;;;;;;2.47;0.20;;;;;;;-142.43;100.00;63430.59;4978543;28;20106;-79
2024/01/02 06:05:01;;;;;;;0.10;0.10;;;;;;;-142.43;100.00;63430.59;4980170;28;20055;-80
2024/01/02 06:07:28;;;;;;;0.00;0.00;;;;;;;-142.43;100.00;63430.59;4981163;28;20106;-80
2024/01/02 06:09:55;;;;;;;0.68;0.10;;;;;;;-142.43;100.00;63430.59;4980493;28;20074;-81
2024/01/02 06:12:22;;;;;;;0.15;0.15;;;;;;;-142.43;100.00;63430.59;4981427;28;20069;-80
2024/01/02 06:14:48;;;;;;;0.17;0.13;;;;;;;-142.43;100.00;63430.59;4979667;28;20482;-80
2024/01/02 06:17:15;;;;;;;0.38;0.20;;;;;;;-142.43;100.00;63430.59;4980840;28;20085;-80
2024/01/02 06:19:41;;;;;;;0.28;0.28;;;;;;;-142.43;100.00;63430.59;4980218;28;20093;-80
2024/01/02 06:22:08;;;;;;;0.20;0.20;;;;;;;-142.43;100.00;63430.59;4981205;28;20125;-81
2024/01/02 06:24:36;;;;;;;0.10;0.10;;;;;;;-142.43;100.00;63430.59;4982051;28;20046;-81
2024/01/02 06:27:03;;;;;;;0.93;0.30;;;;;;;-142.43;100.00;63430.59;4982371;28;20074;-81
2024/01/02 06:29:29;;;;;;;0.90;0.20;;;;;;;-142.43;100.00;63430.59;4981077;28;20054;-81
2024/01/02 06:31:56;;;;;;;1.48;0.20;;;;;;;-142.43;100.00;63430.59;4979664;28;20503;-80
2024/01/02 06:34:23;;;;;;;0.20;0.20;;;;;;;-142.43;100.00;63430.59;4979851;28;20133;-82
2024/01/02 06:36:49;;;;;;;0.52;0.20;;;;;;;-142.43;100.00;63430.59;4978662;28;20097;-81
2024/01/02 06:39:16;;;;;;;1.13;0.60;;;;;;;-142.43;100.00;63430.59;4976690;28;20110;-81
2024/01/02 06:41:44;;;;;;;0.65;0.20;;;;;;;-142.43;100.00;63430.59;4976999;28;20046;-81
2024/01/02 06:44:12;;;;;;;0.22;0.22;;;;;;;-142.43;100.00;63430.59;4976706;28;20477;-80
2024/01/02 06:46:39;;;;;;;0.22;0.20;;;;;;;-142.43;100.00;63430.59;4977231;28;20063;-80
2024/01/02 06:49:06;;;;;;;0.55;0.50;;;;;;;-142.43;100.00;63430.59;4976398;28;20565;-80
2024/01/02 06:51:32;;;;;;;0.22;0.22;;;;;;;-142.43;100.00;63430.59;4976479;28;20121;-80
2024/01/02 06:53:59;;;;;;;0.45;0.45;;;;;;;-142.43;100.00;63430.59;4977396;28;20057;-81
2024/01/02 06:56:25;;;;;;;2.00;0.30;;;;;;;-142.43;100.00;63430.59;4978011;28;20105;-79
2024/01/02 06:58:53;;;;;;;0.15;0.15;;;;;;;-142.43;100.00;63430.59;4978043;28;20074;-80
2024/01/02 07:01:20;;;;;;;2.63;0.28;;;;;;;-142.43;100.00;63430.59;4981115;28;20054;-80
2024/01/02 07:03:47;;;;;;;0.20;0.20;;;;;;;-142.43;100.00;63430.59;4981185;28;20565;-80
2024/01/02 07:06:14;;;;;;;0.25;0.20;;;;;;;-142.43;100.00;63430.59;4978760;28;20106;-80
2024/01/02 07:08:41;;;;;;;2.38;0.30;;;;;;;-142.43;100.00;63430.59;4978745;28;20324;-80
2024/01/02 07:11:07;;;;;;;0.40;0.22;;;;;;;-142.43;100.00;63430.59;4979707;28;20047;-80
2024/01/02 07:13:34;;;;;;;0.47;0.38;;;;;;;-142.43;100.00;63430.59;4976324;28;20134;-80
2024/01/02 07:16:03;;;;;;;0.43;0.43;;;;;;;-142.43;100.00;63430.59;4976235;28;20095;-80
2024/01/02 07:18:30;;;;;;;1.35;0.40;;;;;;;-142.43;100.00;63430.59;4974897;28;20074;-80
2024/01/02 07:20:57;;;;;;;1.65;0.30;;;;;;;-142.43;100.00;63430.59;4976203;28;20055;-81
2024/01/02 07:23:24;;;;;;;0.98;0.22;;;;;;;-142.43;100.00;63430.59;4974892;28;20264;-80
2024/01/02 07:25:51;;;;;;;0.43;0.43;;;;;;;-142.43;100.00;63430.59;4976388;28;20086;-80
2024/01/02 07:28:18;;;;;;;3.30;1.70;;;;;;;-142.43;100.00;63430.59;4972324;28;20050;-79
2024/01/02 07:30:47;;;;;;;1.20;0.70;;;;;;;-142.43;100.00;63430.59;4967869;28;20085;-80
2024/01/02 07:33:15;;;;;;;2.30;0.90;;;;;;;-142.43;100.00;63430.59;4973507;28;20205;-80
2024/01/02 07:35:42;;;;;;;0.60;0.60;;;;;;;-142.43;100.00;63430.59;4974368;28;20054;-80
2024/01/02 07:38:09;;;;;;;1.65;1.05;;;;;;;-142.43;100.00;63430.59;4976793;28;20082;-80
2024/01/02 07:40:35;;;;;;;1.83;0.82;;;;;;;-142.43;100.00;63430.59;4977685;28;20138;-81
2024/01/02 07:43:04;;;;;;;0.38;0.38;;;;;;;-142.43;100.00;63430.59;4979680;28;20126;-81
2024/01/02 07:45:32;;;;;;;0.40;0.40;;;;;;;-142.43;100.00;63430.59;4981043;28;20058;-81
2024/01/02 07:48:02;;;;;;;0.65;0.32;;;;;;;-142.43;100.00;63430.59;4987199;28;20057;-81
2024/01/02 07:50:37;;;;;;;0.55;0.40;;;;;;;-142.43;100.00;63430.59;4991496;28;20057;-80
2024/01/02 07:53:20;;;;;;;0.75;0.55;;;;;;;-142.43;100.00;63430.59;4989781;28;20043;-81
2024/01/02 07:55:53;;;;;;;1.45;0.95;;;;;;;-142.43;100.00;63430.59;4972278;28;20058;-82
2024/01/02 07:58:29;;;;;;;0.68;0.57;;;;;;;-142.43;100.00;63430.59;4976397;28;20079;-82
2024/01/02 08:00:58;;;;;;;0.82;0.70;;;;;;;-142.43;100.00;63430.59;4972178;28;20055;-82
2024/01/02 08:03:36;;;;;;;1.33;0.55;;;;;;;-142.43;100.00;63430.59;4974810;28;20058;-81
2024/01/02 08:06:08;;;;;;;1.98;0.50;;;;;;;-142.43;100.00;63430.59;4971886;28;20524;-81
2024/01/02 08:08:38;;;;;;;0.17;0.13;;;;;;;-142.43;100.00;63430.59;4975998;28;20074;-80
2024/01/02 08:11:12;;;;;;;0.40;0.40;;;;;;;-142.43;100.00;63430.59;4978544;28;20054;-80
2024/01/02 08:13:39;;;;;;;3.13;1.15;;;;;;;-142.43;100.00;63430.59;4981607;28;20047;-80
2024/01/02 08:16:10;;;;;;;1.73;1.60;;;;;;;-142.43;100.00;63430.59;4976405;28;20053;-80
2024/01/02 08:18:41;;;;;;;1.27;0.40;;;;;;;-142.43;100.00;63430.59;4978932;28;20057;-82
2024/01/02 08:21:16;;;;;;;0.60;0.50;;;;;;;-142.43;100.00;63430.59;4978205;28;20111;-82
2024/01/02 08:23:46;;;;;;;2.53;0.98;;;;;;;-142.43;100.00;63430.59;4978577;28;20046;-82
2024/01/02 08:26:15;;;;;;;0.10;0.10;;;;;;;-142.43;100.00;63430.59;4978903;28;20051;-82
2024/01/02 08:28:42;;;;;;;2.63;0.98;;;;;;;-142.43;100.00;63430.59;4973190;28;20106;-82
2024/01/02 08:31:09;;;;;;;2.15;0.77;;;;;;;-142.43;100.00;63430.59;4978445;28;20133;-82
2024/01/02 08:33:35;;;;;;;0.68;0.30;;;;;;;-142.43;100.00;63430.59;4975973;28;20142;-81
2024/01/02 08:36:02;;;;;;;0.63;0.30;;;;;;;-142.43;100.00;63430.59;4977893;28;20046;-81
2024/01/02 08:38:30;;;;;;;0.10;0.10;;;;;;;-142.43;100.00;63430.59;4972003;28;20149;-82
2024/01/02 08:40:57;;;;;;;0.40;0.38;;;;;;;-142.43;100.00;63430.59;4977565;28;20063;-83
2024/01/02 08:43:23;;;;;;;0.35;0.35;;;;;;;-142.43;100.00;63430.59;4978056;28;20135;-82
2024/01/02 08:45:53;;;;;;;0.75;0.40;;;;;;;-142.43;100.00;63430.59;4978789;28;20075;-83
2024/01/02 08:48:20;;;;;;;1.42;0.50;;;;;;;-142.43;100.00;63430.59;4984788;28;20046;-82
2024/01/02 08:50:46;;;;;;;0.75;0.60;;;;;;;-142.43;100.00;63430.59;4988902;28;20058;-84
2024/01/02 08:53:13;;;;;;;0.85;0.52;;;;;;;-142.43;100.00;63430.59;4978262;28;20082;-83
2024/01/02 08:55:42;;;;;;;0.40;0.40;;;;;;;-142.43;100.00;63430.59;4975872;28;20059;-84
2024/01/02 08:58:08;;;;;;;1.92;0.50;;;;;;;-142.43;100.00;63430.59;4990206;28;20049;-84
2024/01/02 09:00:35;;;;;;;0.90;0.35;;;;;;;-142.43;100.00;63430.59;4992092;28;20061;-84
2024/01/02 09:03:02;;;;;;;3.25;1.00;;;;;;;-142.43;100.00;63430.59;4986185;28;20043;-84
2024/01/02 09:05:29;;;;;;;0.50;0.50;;;;;;;-142.43;100.00;63430.59;4977160;28;20123;-84
2024/01/02 09:07:56;;;;;;;0.75;0.60;;;;;;;-142.43;100.00;63430.59;4977750;28;20094;-84
2024/01/02 09:10:25;;;;;;;0.82;0.55;;;;;;;-142.43;100.00;63430.59;4978898;28;20172;-84
2024/01/02 09:12:53;;;;;;;1.23;0.80;;;;;;;-142.43;100.00;63430.59;4979745;28;20094;-83
2024/01/02 09:15:19;;;;;;;0.68;0.68;;;;;;;-142.43;100.00;63430.59;4977966;28;20058;-84
2024/01/02 09:17:46;;;;;;;2.08;1.95;;;;;;;-142.43;100.00;63430.59;4979300;28;20134;-84
2024/01/02 09:20:13;;;;;;;0.40;0.40;;;;;;;-142.43;100.00;63430.59;4982060;28;20046;-84
2024/01/02 09:22:39;;;;;;;1.08;0.75;;;;;;;-142.43;100.00;63430.59;4978499;28;20085;-82
2024/01/02 09:25:10;;;;;;;0.50;0.50;;;;;;;-142.43;100.00;63430.59;4979986;28;20126;-83
2024/01/02 09:27:37;;;;;;;0.60;0.38;;;;;;;-142.43;100.00;63430.59;4984758;28;20114;-84
2024/01/02 09:30:06;;;;;;;0.60;0.55;;;;;;;-142.43;100.00;63430.59;4978677;28;20074;-84
2024/01/02 09:32:33;;;;;;;0.52;0.52;;;;;;;-142.43;100.00;63430.59;4981986;28;20093;-84
2024/01/02 09:35:01;;;;;;;0.65;0.63;;;;;;;-142.43;100.00;63430.59;4982017;28;20078;-84
2024/01/02 09:37:28;;;;;;;1.15;0.60;;;;;;;-142.43;100.00;63430.59;4981632;28;20130;-84
2024/01/02 09:39:55;;;;;;;0.60;0.35;;;;;;;-142.43;100.00;63430.59;4980911;28;20055;-83
2024/01/02 09:42:42;;;;;;;0.45;0.45;;;;;;;-142.43;100.00;63430.59;4977925;28;20095;-84
2024/01/02 09:45:14;;;;;;;0.40;0.40;;;;;;;-142.43;100.00;63430.59;4979271;28;20047;-83
2024/01/02 09:48:06;;;;;;;0.65;0.57;;;;;;;-142.43;100.00;63430.59;4975116;28;20051;-84
2024/01/02 09:50:35;;;;;;;1.25;0.98;;;;;;;-142.43;100.00;63430.59;4981713;28;20070;-84
2024/01/02 09:53:30;;;;;;;1.13;0.60;;;;;;;-142.43;100.00;63430.59;4982210;28;20107;-84
2024/01/02 09:56:03;;;;;;;1.75;1.63;;;;;;;-142.43;100.00;63430.59;4976154;28;20489;-84
2024/01/02 09:58:38;;;;;;;1.52;1.25;;;;;;;-142.43;100.00;63430.59;4981987;28;20082;-84
2024/01/02 10:01:15;;;;;;;1.38;0.88;;;;;;;-142.43;100.00;63430.59;4982178;28;20608;-84
2024/01/02 10:04:00;;;;;;;1.63;1.20;;;;;;;-142.43;100.00;63430.59;4981742;28;20046;-84
2024/01/02 10:06:38;;;;;;;1.17;0.45;;;;;;;-142.43;100.00;63430.59;4982383;28;20133;-83
2024/01/02 10:09:33;;;;;;;1.70;1.60;;;;;;;-142.43;100.00;63430.59;4981674;28;20110;-84
2024/01/02 10:12:10;;;;;;;2.38;2.08;;;;;;;-142.43;100.00;63430.59;4976489;28;20047;-84
2024/01/02 10:14:51;;;;;;;2.65;1.88;;;;;;;-142.43;100.00;63430.59;4982879;28;20082;-84
2024/01/02 10:17:36;;;;;;;4.80;3.13;;;;;;;-142.43;100.00;63430.59;4992944;28;20050;-83
2024/01/02 10:20:12;;;;;;;1.90;1.70;;;;;;;-142.43;100.00;63430.59;4995535;28;20070;-83
2024/01/02 10:22:47;;;;;;;1.25;1.15;;;;;;;-142.43;100.00;63430.59;4991550;28;20078;-83
2024/01/02 10:25:17;;;;;;;0.50;0.40;;;;;;;-142.43;100.00;63430.59;4991031;28;20051;-84
2024/01/02 10:27:50;;;;;;;0.60;0.55;;;;;;;-142.43;100.00;63430.59;4976915;28;20131;-82
2024/01/02 10:30:19;;;;;;;1.05;0.50;;;;;;;-142.43;100.00;63430.59;4977950;28;20137;-84
2024/01/02 10:32:58;;;;;;;0.52;0.52;;;;;;;-142.43;100.00;63430.59;4977863;28;20054;-84
2024/01/02 10:35:34;;;;;;;0.43;0.30;;;;;;;-142.43;100.00;63430.59;4978211;28;20066;-83
2024/01/02 10:38:15;;;;;;;0.30;0.30;;;;;;;-142.43;100.00;63430.59;4978838;28;20050;-82
2024/01/02 10:40:46;;;;;;;0.50;0.50;;;;;;;-142.43;100.00;63430.59;4979773;28;20469;-83
2024/01/02 10:43:26;;;;;;;2.78;1.95;;;;;;;-142.43;100.00;63430.59;4984912;28;20046;-82
2024/01/02 10:45:58;;;;;;;0.93;0.82;;;;;;;-142.43;100.00;63430.59;4987368;28;20075;-82
2024/01/02 10:48:44;;;;;;;2.70;1.95;;;;;;;-142.43;100.00;63430.59;4987737;28;20054;-84
2024/01/02 10:51:20;;;;;;;1.15;0.93;;;;;;;-142.43;100.00;63430.59;4976777;28;20054;-83
2024/01/02 10:53:50;;;;;;;2.17;1.65;;;;;;;-142.43;100.00;63430.59;4980060;28;20469;-84
2024/01/02 10:56:28;;;;;;;2.90;0.80;;;;;;;-142.43;100.00;63430.59;4975454;28;20075;-84
2024/01/02 10:59:04;;;;;;;2.78;1.02;;;;;;;-142.43;100.00;63430.59;4967733;28;20129;-84
2024/01/02 11:01:34;;;;;;;1.92;1.77;;;;;;;-142.43;100.00;63430.59;4978785;28;20046;-84
2024/01/02 11:04:19;;;;;;;1.30;1.20;;;;;;;-142.43;100.00;63430.59;4977000;28;20114;-84
2024/01/02 11:06:49;;;;;;;0.80;0.80;;;;;;;-142.43;100.00;63430.59;4977012;28;20135;-84
2024/01/02 11:09:26;;;;;;;1.55;1.42;;;;;;;-142.43;100.00;63430.59;4974321;28;20093;-84
2024/01/02 11:11:55;;;;;;;0.95;0.75;;;;;;;-142.43;100.00;63430.59;4977822;28;20161;-84
2024/01/02 11:14:25;;;;;;;0.75;0.75;;;;;;;-142.43;100.00;63430.59;4978131;28;20125;-83
2024/01/02 11:16:53;;;;;;;1.70;1.48;;;;;;;-142.43;100.00;63430.59;4979436;28;20199;-82